sensor_id;sensor_type;location;lat;lon;timestamp;P1;durP1;ratioP1;P2;durP2;ratioP2
40595;SDS011;26304;48.794;9.820;2024-01-30T00:02:13;1.75;;;1.65;;
40595;SDS011;26304;48.794;9.820;2024-01-30T00:04:35;2.00;;;1.83;;
40595;SDS011;26304;48.794;9.820;2024-01-30T00:06:59;2.20;;;2.00;;
40595;SDS011;26304;48.794;9.820;2024-01-30T00:09:21;2.13;;;2.03;;
40595;SDS011;26304;48.794;9.820;2024-01-30T00:11:44;2.03;;;1.90;;
40595;SDS011;26304;48.794;9.820;2024-01-30T00:14:06;2.58;;;1.92;;
40595;SDS011;26304;48.794;9.820;2024-01-30T00:16:29;2.33;;;2.13;;
40595;SDS011;26304;48.794;9.820;2024-01-30T00:18:52;1.90;;;1.70;;
40595;SDS011;26304;48.794;9.820;2024-01-30T00:21:14;2.20;;;2.00;;
40595;SDS011;26304;48.794;9.820;2024-01-30T00:23:38;2.20;;;2.05;;
40595;SDS011;26304;48.794;9.820;2024-01-30T00:26:01;2.10;;;1.90;;
40595;SDS011;26304;48.794;9.820;2024-01-30T00:28:23;2.03;;;1.92;;
40595;SDS011;26304;48.794;9.820;2024-01-30T00:30:46;1.95;;;1.75;;
40595;SDS011;26304;48.794;9.820;2024-01-30T00:33:09;2.03;;;1.90;;
40595;SDS011;26304;48.794;9.820;2024-01-30T00:35:31;2.05;;;1.88;;
40595;SDS011;26304;48.794;9.820;2024-01-30T00:37:54;2.00;;;1.90;;
40595;SDS011;26304;48.794;9.820;2024-01-30T00:40:18;2.20;;;2.00;;
40595;SDS011;26304;48.794;9.820;2024-01-30T00:42:39;1.98;;;1.88;;
40595;SDS011;26304;48.794;9.820;2024-01-30T00:45:02;2.08;;;1.88;;
40595;SDS011;26304;48.794;9.820;2024-01-30T00:47:25;2.13;;;1.83;;
40595;SDS011;26304;48.794;9.820;2024-01-30T00:49:47;2.08;;;1.75;;
40595;SDS011;26304;48.794;9.820;2024-01-30T00:52:10;1.95;;;1.83;;
40595;SDS011;26304;48.794;9.820;2024-01-30T00:54:33;2.75;;;2.10;;
40595;SDS011;26304;48.794;9.820;2024-01-30T00:56:57;2.10;;;1.90;;
40595;SDS011;26304;48.794;9.820;2024-01-30T00:59:20;2.92;;;1.92;;
40595;SDS011;26304;48.794;9.820;2024-01-30T01:01:42;1.80;;;1.70;;
40595;SDS011;26304;48.794;9.820;2024-01-30T01:04:05;1.90;;;1.80;;
40595;SDS011;26304;48.794;9.820;2024-01-30T01:06:28;2.13;;;1.95;;
40595;SDS011;26304;48.794;9.820;2024-01-30T01:08:50;2.25;;;2.00;;
40595;SDS011;26304;48.794;9.820;2024-01-30T01:11:13;2.38;;;2.17;;
40595;SDS011;26304;48.794;9.820;2024-01-30T01:13:37;2.25;;;2.05;;
40595;SDS011;26304;48.794;9.820;2024-01-30T01:15:59;1.90;;;1.80;;
40595;SDS011;26304;48.794;9.820;2024-01-30T01:18:22;2.35;;;2.15;;
40595;SDS011;26304;48.794;9.820;2024-01-30T01:20:44;2.33;;;2.13;;
40595;SDS011;26304;48.794;9.820;2024-01-30T01:23:07;2.10;;;2.00;;
40595;SDS011;26304;48.794;9.820;2024-01-30T01:25:29;1.80;;;1.70;;
40595;SDS011;26304;48.794;9.820;2024-01-30T01:27:52;2.03;;;1.90;;
40595;SDS011;26304;48.794;9.820;2024-01-30T01:30:16;2.28;;;2.08;;
40595;SDS011;26304;48.794;9.820;2024-01-30T01:32:42;2.15;;;2.00;;
40595;SDS011;26304;48.794;9.820;2024-01-30T01:35:11;1.80;;;1.70;;
40595;SDS011;26304;48.794;9.820;2024-01-30T01:37:33;1.65;;;1.55;;
40595;SDS011;26304;48.794;9.820;2024-01-30T01:39:56;1.98;;;1.77;;
40595;SDS011;26304;48.794;9.820;2024-01-30T01:42:18;1.58;;;1.48;;
40595;SDS011;26304;48.794;9.820;2024-01-30T01:44:41;1.83;;;1.73;;
40595;SDS011;26304;48.794;9.820;2024-01-30T01:47:05;2.25;;;2.05;;
40595;SDS011;26304;48.794;9.820;2024-01-30T01:49:28;2.70;;;2.20;;
40595;SDS011;26304;48.794;9.820;2024-01-30T01:51:51;2.35;;;2.20;;
40595;SDS011;26304;48.794;9.820;2024-01-30T01:54:17;2.10;;;2.00;;
40595;SDS011;26304;48.794;9.820;2024-01-30T01:56:40;2.28;;;2.05;;
40595;SDS011;26304;48.794;9.820;2024-01-30T01:59:04;2.13;;;2.03;;
40595;SDS011;26304;48.794;9.820;2024-01-30T02:01:28;2.25;;;2.05;;
40595;SDS011;26304;48.794;9.820;2024-01-30T02:03:53;2.17;;;1.98;;
40595;SDS011;26304;48.794;9.820;2024-01-30T02:06:15;2.47;;;2.28;;
40595;SDS011;26304;48.794;9.820;2024-01-30T02:08:38;2.05;;;1.95;;
40595;SDS011;26304;48.794;9.820;2024-01-30T02:11:01;2.58;;;2.38;;
40595;SDS011;26304;48.794;9.820;2024-01-30T02:13:24;1.90;;;1.80;;
40595;SDS011;26304;48.794;9.820;2024-01-30T02:15:48;2.17;;;2.00;;
40595;SDS011;26304;48.794;9.820;2024-01-30T02:18:12;1.92;;;1.73;;
40595;SDS011;26304;48.794;9.820;2024-01-30T02:20:36;2.15;;;2.05;;
40595;SDS011;26304;48.794;9.820;2024-01-30T02:23:01;2.28;;;2.08;;
40595;SDS011;26304;48.794;9.820;2024-01-30T02:25:30;2.33;;;2.13;;
40595;SDS011;26304;48.794;9.820;2024-01-30T02:27:53;1.98;;;1.88;;
40595;SDS011;26304;48.794;9.820;2024-01-30T02:30:16;2.00;;;1.90;;
40595;SDS011;26304;48.794;9.820;2024-01-30T02:32:38;2.55;;;2.35;;
40595;SDS011;26304;48.794;9.820;2024-01-30T02:35:01;2.30;;;2.10;;
40595;SDS011;26304;48.794;9.820;2024-01-30T02:37:24;2.10;;;2.00;;
40595;SDS011;26304;48.794;9.820;2024-01-30T02:39:48;2.20;;;2.00;;
40595;SDS011;26304;48.794;9.820;2024-01-30T02:42:10;2.33;;;2.13;;
40595;SDS011;26304;48.794;9.820;2024-01-30T02:44:33;1.90;;;1.80;;
40595;SDS011;26304;48.794;9.820;2024-01-30T02:46:56;2.08;;;1.95;;
40595;SDS011;26304;48.794;9.820;2024-01-30T02:49:18;2.28;;;2.08;;
40595;SDS011;26304;48.794;9.820;2024-01-30T02:51:41;2.55;;;2.35;;
40595;SDS011;26304;48.794;9.820;2024-01-30T02:54:04;2.60;;;2.40;;
40595;SDS011;26304;48.794;9.820;2024-01-30T02:56:28;2.42;;;2.05;;
40595;SDS011;26304;48.794;9.820;2024-01-30T02:58:50;1.98;;;1.88;;
40595;SDS011;26304;48.794;9.820;2024-01-30T03:01:13;2.42;;;2.22;;
40595;SDS011;26304;48.794;9.820;2024-01-30T03:03:35;2.50;;;2.30;;
40595;SDS011;26304;48.794;9.820;2024-01-30T03:05:57;2.13;;;1.98;;
40595;SDS011;26304;48.794;9.820;2024-01-30T03:08:20;2.10;;;2.00;;
40595;SDS011;26304;48.794;9.820;2024-01-30T03:10:42;2.45;;;2.22;;
40595;SDS011;26304;48.794;9.820;2024-01-30T03:13:06;2.53;;;2.33;;
40595;SDS011;26304;48.794;9.820;2024-01-30T03:15:29;3.00;;;2.40;;
40595;SDS011;26304;48.794;9.820;2024-01-30T03:17:52;2.38;;;2.17;;
40595;SDS011;26304;48.794;9.820;2024-01-30T03:20:15;2.20;;;2.08;;
40595;SDS011;26304;48.794;9.820;2024-01-30T03:22:37;2.50;;;2.30;;
40595;SDS011;26304;48.794;9.820;2024-01-30T03:25:00;2.30;;;2.10;;
40595;SDS011;26304;48.794;9.820;2024-01-30T03:27:22;2.30;;;2.10;;
40595;SDS011;26304;48.794;9.820;2024-01-30T03:29:46;2.13;;;2.03;;
40595;SDS011;26304;48.794;9.820;2024-01-30T03:32:09;1.98;;;1.88;;
40595;SDS011;26304;48.794;9.820;2024-01-30T03:34:30;2.38;;;2.17;;
40595;SDS011;26304;48.794;9.820;2024-01-30T03:36:53;2.35;;;2.17;;
40595;SDS011;26304;48.794;9.820;2024-01-30T03:39:16;2.15;;;2.03;;
40595;SDS011;26304;48.794;9.820;2024-01-30T03:41:41;2.30;;;2.10;;
40595;SDS011;26304;48.794;9.820;2024-01-30T03:44:05;2.40;;;2.20;;
40595;SDS011;26304;48.794;9.820;2024-01-30T03:46:29;2.22;;;2.05;;
40595;SDS011;26304;48.794;9.820;2024-01-30T03:48:52;2.35;;;2.15;;
40595;SDS011;26304;48.794;9.820;2024-01-30T03:51:14;2.35;;;2.15;;
40595;SDS011;26304;48.794;9.820;2024-01-30T03:53:37;2.15;;;2.05;;
40595;SDS011;26304;48.794;9.820;2024-01-30T03:56:00;2.28;;;2.08;;
40595;SDS011;26304;48.794;9.820;2024-01-30T03:58:22;1.90;;;1.80;;
40595;SDS011;26304;48.794;9.820;2024-01-30T04:00:45;2.13;;;2.00;;
40595;SDS011;26304;48.794;9.820;2024-01-30T04:03:09;2.03;;;1.92;;
40595;SDS011;26304;48.794;9.820;2024-01-30T04:05:32;2.65;;;2.45;;
40595;SDS011;26304;48.794;9.820;2024-01-30T04:07:54;2.05;;;1.95;;
40595;SDS011;26304;48.794;9.820;2024-01-30T04:10:17;2.30;;;2.10;;
40595;SDS011;26304;48.794;9.820;2024-01-30T04:12:40;1.88;;;1.77;;
40595;SDS011;26304;48.794;9.820;2024-01-30T04:15:03;2.03;;;1.90;;
40595;SDS011;26304;48.794;9.820;2024-01-30T04:17:26;2.10;;;2.00;;
40595;SDS011;26304;48.794;9.820;2024-01-30T04:19:51;2.30;;;2.10;;
40595;SDS011;26304;48.794;9.820;2024-01-30T04:22:14;2.17;;;2.08;;
40595;SDS011;26304;48.794;9.820;2024-01-30T04:24:36;2.38;;;2.17;;
40595;SDS011;26304;48.794;9.820;2024-01-30T04:26:59;1.92;;;1.73;;
40595;SDS011;26304;48.794;9.820;2024-01-30T04:29:21;2.10;;;2.00;;
40595;SDS011;26304;48.794;9.820;2024-01-30T04:31:44;1.95;;;1.85;;
40595;SDS011;26304;48.794;9.820;2024-01-30T04:34:07;2.20;;;2.00;;
40595;SDS011;26304;48.794;9.820;2024-01-30T04:36:31;2.45;;;2.25;;
40595;SDS011;26304;48.794;9.820;2024-01-30T04:38:53;2.65;;;2.17;;
40595;SDS011;26304;48.794;9.820;2024-01-30T04:41:16;2.00;;;1.90;;
40595;SDS011;26304;48.794;9.820;2024-01-30T04:43:38;2.03;;;1.92;;
40595;SDS011;26304;48.794;9.820;2024-01-30T04:46:01;2.40;;;2.20;;
40595;SDS011;26304;48.794;9.820;2024-01-30T04:48:23;2.15;;;1.95;;
40595;SDS011;26304;48.794;9.820;2024-01-30T04:50:46;1.90;;;1.80;;
40595;SDS011;26304;48.794;9.820;2024-01-30T04:53:10;2.60;;;2.40;;
40595;SDS011;26304;48.794;9.820;2024-01-30T04:55:32;2.42;;;2.30;;
40595;SDS011;26304;48.794;9.820;2024-01-30T04:57:55;1.92;;;1.83;;
40595;SDS011;26304;48.794;9.820;2024-01-30T05:00:18;2.38;;;2.20;;
40595;SDS011;26304;48.794;9.820;2024-01-30T05:02:40;2.47;;;1.95;;
40595;SDS011;26304;48.794;9.820;2024-01-30T05:05:03;2.15;;;2.05;;
40595;SDS011;26304;48.794;9.820;2024-01-30T05:07:26;2.22;;;2.10;;
40595;SDS011;26304;48.794;9.820;2024-01-30T05:09:50;2.58;;;2.38;;
40595;SDS011;26304;48.794;9.820;2024-01-30T05:12:13;2.05;;;1.92;;
40595;SDS011;26304;48.794;9.820;2024-01-30T05:14:35;2.28;;;2.17;;
40595;SDS011;26304;48.794;9.820;2024-01-30T05:16:58;1.90;;;1.80;;
40595;SDS011;26304;48.794;9.820;2024-01-30T05:19:20;2.05;;;1.95;;
40595;SDS011;26304;48.794;9.820;2024-01-30T05:21:44;2.45;;;2.15;;
40595;SDS011;26304;48.794;9.820;2024-01-30T05:24:06;2.00;;;1.80;;
40595;SDS011;26304;48.794;9.820;2024-01-30T05:26:32;3.25;;;2.03;;
40595;SDS011;26304;48.794;9.820;2024-01-30T05:28:55;3.47;;;1.90;;
40595;SDS011;26304;48.794;9.820;2024-01-30T05:31:17;2.13;;;1.92;;
40595;SDS011;26304;48.794;9.820;2024-01-30T05:33:40;2.53;;;2.30;;
40595;SDS011;26304;48.794;9.820;2024-01-30T05:36:03;2.00;;;1.88;;
40595;SDS011;26304;48.794;9.820;2024-01-30T05:38:25;1.85;;;1.75;;
40595;SDS011;26304;48.794;9.820;2024-01-30T05:40:48;2.58;;;2.38;;
40595;SDS011;26304;48.794;9.820;2024-01-30T05:43:12;3.10;;;2.30;;
40595;SDS011;26304;48.794;9.820;2024-01-30T05:45:35;2.38;;;2.17;;
40595;SDS011;26304;48.794;9.820;2024-01-30T05:47:58;2.88;;;2.10;;
40595;SDS011;26304;48.794;9.820;2024-01-30T05:50:20;2.50;;;2.30;;
40595;SDS011;26304;48.794;9.820;2024-01-30T05:52:44;2.50;;;2.30;;
40595;SDS011;26304;48.794;9.820;2024-01-30T05:55:07;2.40;;;2.20;;
40595;SDS011;26304;48.794;9.820;2024-01-30T05:57:30;2.20;;;2.00;;
40595;SDS011;26304;48.794;9.820;2024-01-30T05:59:54;3.85;;;2.15;;
40595;SDS011;26304;48.794;9.820;2024-01-30T06:02:17;2.30;;;2.20;;
40595;SDS011;26304;48.794;9.820;2024-01-30T06:04:40;3.50;;;2.05;;
40595;SDS011;26304;48.794;9.820;2024-01-30T06:07:02;2.47;;;2.15;;
40595;SDS011;26304;48.794;9.820;2024-01-30T06:09:27;2.72;;;2.10;;
40595;SDS011;26304;48.794;9.820;2024-01-30T06:11:49;2.92;;;2.10;;
40595;SDS011;26304;48.794;9.820;2024-01-30T06:14:12;2.63;;;2.00;;
40595;SDS011;26304;48.794;9.820;2024-01-30T06:16:36;2.55;;;2.30;;
40595;SDS011;26304;48.794;9.820;2024-01-30T06:18:58;3.30;;;2.28;;
40595;SDS011;26304;48.794;9.820;2024-01-30T06:21:21;2.08;;;1.98;;
40595;SDS011;26304;48.794;9.820;2024-01-30T06:23:43;3.58;;;2.35;;
40595;SDS011;26304;48.794;9.820;2024-01-30T06:26:06;3.43;;;2.10;;
40595;SDS011;26304;48.794;9.820;2024-01-30T06:28:29;1.90;;;1.80;;
40595;SDS011;26304;48.794;9.820;2024-01-30T06:30:51;4.20;;;2.17;;
40595;SDS011;26304;48.794;9.820;2024-01-30T06:33:15;3.55;;;1.90;;
40595;SDS011;26304;48.794;9.820;2024-01-30T06:35:38;3.78;;;1.95;;
40595;SDS011;26304;48.794;9.820;2024-01-30T06:38:01;4.72;;;2.33;;
40595;SDS011;26304;48.794;9.820;2024-01-30T06:40:23;2.17;;;1.98;;
40595;SDS011;26304;48.794;9.820;2024-01-30T06:42:46;2.03;;;1.90;;
40595;SDS011;26304;48.794;9.820;2024-01-30T06:45:09;2.00;;;1.85;;
40595;SDS011;26304;48.794;9.820;2024-01-30T06:47:31;2.22;;;2.00;;
40595;SDS011;26304;48.794;9.820;2024-01-30T06:49:55;2.28;;;1.90;;
40595;SDS011;26304;48.794;9.820;2024-01-30T06:52:18;1.65;;;1.55;;
40595;SDS011;26304;48.794;9.820;2024-01-30T06:54:41;1.73;;;1.63;;
40595;SDS011;26304;48.794;9.820;2024-01-30T06:57:04;2.20;;;2.00;;
40595;SDS011;26304;48.794;9.820;2024-01-30T06:59:29;3.05;;;1.80;;
40595;SDS011;26304;48.794;9.820;2024-01-30T07:01:52;2.25;;;2.00;;
40595;SDS011;26304;48.794;9.820;2024-01-30T07:04:14;2.97;;;2.10;;
40595;SDS011;26304;48.794;9.820;2024-01-30T07:06:39;1.75;;;1.65;;
40595;SDS011;26304;48.794;9.820;2024-01-30T07:09:01;2.25;;;2.00;;
40595;SDS011;26304;48.794;9.820;2024-01-30T07:11:24;2.17;;;1.92;;
40595;SDS011;26304;48.794;9.820;2024-01-30T07:13:47;2.08;;;1.90;;
40595;SDS011;26304;48.794;9.820;2024-01-30T07:16:10;2.00;;;1.80;;
40595;SDS011;26304;48.794;9.820;2024-01-30T07:18:33;1.85;;;1.75;;
40595;SDS011;26304;48.794;9.820;2024-01-30T07:20:56;2.83;;;2.00;;
40595;SDS011;26304;48.794;9.820;2024-01-30T07:23:20;3.78;;;1.92;;
40595;SDS011;26304;48.794;9.820;2024-01-30T07:25:42;1.92;;;1.67;;
40595;SDS011;26304;48.794;9.820;2024-01-30T07:28:05;1.60;;;1.50;;
40595;SDS011;26304;48.794;9.820;2024-01-30T07:30:28;2.50;;;1.70;;
40595;SDS011;26304;48.794;9.820;2024-01-30T07:32:50;2.30;;;1.98;;
40595;SDS011;26304;48.794;9.820;2024-01-30T07:35:13;2.47;;;1.85;;
40595;SDS011;26304;48.794;9.820;2024-01-30T07:37:36;1.70;;;1.60;;
40595;SDS011;26304;48.794;9.820;2024-01-30T07:40:01;3.25;;;1.83;;
40595;SDS011;26304;48.794;9.820;2024-01-30T07:42:24;1.63;;;1.50;;
40595;SDS011;26304;48.794;9.820;2024-01-30T07:44:47;2.50;;;2.10;;
40595;SDS011;26304;48.794;9.820;2024-01-30T07:47:10;2.13;;;1.63;;
40595;SDS011;26304;48.794;9.820;2024-01-30T07:49:32;2.30;;;2.10;;
40595;SDS011;26304;48.794;9.820;2024-01-30T07:51:55;1.63;;;1.52;;
40595;SDS011;26304;48.794;9.820;2024-01-30T07:54:17;1.70;;;1.60;;
40595;SDS011;26304;48.794;9.820;2024-01-30T07:56:41;1.80;;;1.70;;
40595;SDS011;26304;48.794;9.820;2024-01-30T07:59:04;1.92;;;1.77;;
40595;SDS011;26304;48.794;9.820;2024-01-30T08:01:26;2.00;;;1.73;;
40595;SDS011;26304;48.794;9.820;2024-01-30T08:03:49;1.90;;;1.80;;
40595;SDS011;26304;48.794;9.820;2024-01-30T08:06:12;2.03;;;1.90;;
40595;SDS011;26304;48.794;9.820;2024-01-30T08:08:35;1.83;;;1.63;;
40595;SDS011;26304;48.794;9.820;2024-01-30T08:10:58;2.20;;;2.00;;
40595;SDS011;26304;48.794;9.820;2024-01-30T08:13:22;1.90;;;1.80;;
40595;SDS011;26304;48.794;9.820;2024-01-30T08:15:45;2.30;;;1.90;;
40595;SDS011;26304;48.794;9.820;2024-01-30T08:18:07;2.50;;;2.30;;
40595;SDS011;26304;48.794;9.820;2024-01-30T08:20:30;2.20;;;2.00;;
40595;SDS011;26304;48.794;9.820;2024-01-30T08:22:52;2.42;;;2.22;;
40595;SDS011;26304;48.794;9.820;2024-01-30T08:25:15;2.30;;;2.00;;
40595;SDS011;26304;48.794;9.820;2024-01-30T08:27:37;2.78;;;2.00;;
40595;SDS011;26304;48.794;9.820;2024-01-30T08:30:01;3.97;;;2.45;;
40595;SDS011;26304;48.794;9.820;2024-01-30T08:32:24;2.78;;;2.20;;
40595;SDS011;26304;48.794;9.820;2024-01-30T08:34:47;2.17;;;2.08;;
40595;SDS011;26304;48.794;9.820;2024-01-30T08:37:10;2.22;;;2.03;;
40595;SDS011;26304;48.794;9.820;2024-01-30T08:39:32;2.67;;;2.00;;
40595;SDS011;26304;48.794;9.820;2024-01-30T08:41:55;2.88;;;2.33;;
40595;SDS011;26304;48.794;9.820;2024-01-30T08:44:18;2.90;;;2.38;;
40595;SDS011;26304;48.794;9.820;2024-01-30T08:46:42;3.05;;;2.65;;
40595;SDS011;26304;48.794;9.820;2024-01-30T08:49:05;3.03;;;2.83;;
40595;SDS011;26304;48.794;9.820;2024-01-30T08:51:28;3.10;;;2.80;;
40595;SDS011;26304;48.794;9.820;2024-01-30T08:53:51;4.78;;;2.95;;
40595;SDS011;26304;48.794;9.820;2024-01-30T08:59:32;3.53;;;3.22;;
40595;SDS011;26304;48.794;9.820;2024-01-30T09:01:56;3.40;;;3.10;;
40595;SDS011;26304;48.794;9.820;2024-01-30T09:04:20;3.35;;;3.08;;
40595;SDS011;26304;48.794;9.820;2024-01-30T09:06:42;4.20;;;3.80;;
40595;SDS011;26304;48.794;9.820;2024-01-30T09:09:08;3.97;;;3.58;;
40595;SDS011;26304;48.794;9.820;2024-01-30T09:11:30;3.30;;;3.00;;
40595;SDS011;26304;48.794;9.820;2024-01-30T09:13:53;3.30;;;3.00;;
40595;SDS011;26304;48.794;9.820;2024-01-30T09:16:15;3.15;;;2.85;;
40595;SDS011;26304;48.794;9.820;2024-01-30T09:18:39;3.25;;;2.95;;
40595;SDS011;26304;48.794;9.820;2024-01-30T09:21:01;3.20;;;3.00;;
40595;SDS011;26304;48.794;9.820;2024-01-30T09:23:27;3.53;;;3.22;;
40595;SDS011;26304;48.794;9.820;2024-01-30T09:25:50;3.72;;;3.10;;
40595;SDS011;26304;48.794;9.820;2024-01-30T09:28:13;4.07;;;3.67;;
40595;SDS011;26304;48.794;9.820;2024-01-30T09:30:35;3.65;;;3.35;;
40595;SDS011;26304;48.794;9.820;2024-01-30T09:32:57;3.78;;;3.42;;
40595;SDS011;26304;48.794;9.820;2024-01-30T09:35:21;3.53;;;3.22;;
40595;SDS011;26304;48.794;9.820;2024-01-30T09:37:44;3.85;;;3.55;;
40595;SDS011;26304;48.794;9.820;2024-01-30T09:40:07;5.07;;;3.30;;
40595;SDS011;26304;48.794;9.820;2024-01-30T09:42:33;3.65;;;3.35;;
40595;SDS011;26304;48.794;9.820;2024-01-30T09:44:57;4.15;;;3.75;;
40595;SDS011;26304;48.794;9.820;2024-01-30T09:47:19;3.33;;;3.03;;
40595;SDS011;26304;48.794;9.820;2024-01-30T09:49:42;3.67;;;3.33;;
40595;SDS011;26304;48.794;9.820;2024-01-30T09:52:07;3.47;;;3.17;;
40595;SDS011;26304;48.794;9.820;2024-01-30T09:54:30;3.50;;;3.20;;
40595;SDS011;26304;48.794;9.820;2024-01-30T09:56:53;3.38;;;3.08;;
40595;SDS011;26304;48.794;9.820;2024-01-30T09:59:16;3.78;;;3.35;;
40595;SDS011;26304;48.794;9.820;2024-01-30T10:01:38;3.35;;;3.05;;
40595;SDS011;26304;48.794;9.820;2024-01-30T10:04:02;3.25;;;2.95;;
40595;SDS011;26304;48.794;9.820;2024-01-30T10:06:25;3.97;;;3.33;;
40595;SDS011;26304;48.794;9.820;2024-01-30T10:08:50;3.55;;;3.25;;
40595;SDS011;26304;48.794;9.820;2024-01-30T10:11:12;3.70;;;3.40;;
40595;SDS011;26304;48.794;9.820;2024-01-30T10:13:35;3.35;;;3.05;;
40595;SDS011;26304;48.794;9.820;2024-01-30T10:15:57;3.20;;;3.00;;
40595;SDS011;26304;48.794;9.820;2024-01-30T10:18:22;3.38;;;3.00;;
40595;SDS011;26304;48.794;9.820;2024-01-30T10:20:44;3.50;;;3.20;;
40595;SDS011;26304;48.794;9.820;2024-01-30T10:23:07;3.22;;;3.03;;
40595;SDS011;26304;48.794;9.820;2024-01-30T10:25:32;3.40;;;3.10;;
40595;SDS011;26304;48.794;9.820;2024-01-30T10:27:55;3.33;;;3.03;;
40595;SDS011;26304;48.794;9.820;2024-01-30T10:30:18;2.88;;;2.67;;
40595;SDS011;26304;48.794;9.820;2024-01-30T10:32:40;2.55;;;2.35;;
40595;SDS011;26304;48.794;9.820;2024-01-30T10:35:03;3.03;;;2.78;;
40595;SDS011;26304;48.794;9.820;2024-01-30T10:37:26;2.92;;;2.72;;
40595;SDS011;26304;48.794;9.820;2024-01-30T10:39:52;2.88;;;2.67;;
40595;SDS011;26304;48.794;9.820;2024-01-30T10:42:18;3.17;;;2.88;;
40595;SDS011;26304;48.794;9.820;2024-01-30T10:44:43;3.20;;;2.55;;
40595;SDS011;26304;48.794;9.820;2024-01-30T10:47:11;2.75;;;2.55;;
40595;SDS011;26304;48.794;9.820;2024-01-30T10:49:35;2.83;;;2.63;;
40595;SDS011;26304;48.794;9.820;2024-01-30T10:51:58;2.35;;;2.20;;
40595;SDS011;26304;48.794;9.820;2024-01-30T10:54:22;2.65;;;2.45;;
40595;SDS011;26304;48.794;9.820;2024-01-30T10:56:47;3.00;;;2.80;;
40595;SDS011;26304;48.794;9.820;2024-01-30T10:59:13;3.17;;;2.97;;
40595;SDS011;26304;48.794;9.820;2024-01-30T11:01:36;2.72;;;2.53;;
40595;SDS011;26304;48.794;9.820;2024-01-30T11:03:59;2.80;;;2.60;;
40595;SDS011;26304;48.794;9.820;2024-01-30T11:06:22;3.53;;;2.53;;
40595;SDS011;26304;48.794;9.820;2024-01-30T11:08:45;2.63;;;2.42;;
40595;SDS011;26304;48.794;9.820;2024-01-30T11:11:08;2.95;;;2.75;;
40595;SDS011;26304;48.794;9.820;2024-01-30T11:13:31;5.45;;;2.85;;
40595;SDS011;26304;48.794;9.820;2024-01-30T11:15:55;3.15;;;2.85;;
40595;SDS011;26304;48.794;9.820;2024-01-30T11:18:23;3.55;;;2.70;;
40595;SDS011;26304;48.794;9.820;2024-01-30T11:20:46;3.20;;;2.63;;
40595;SDS011;26304;48.794;9.820;2024-01-30T11:23:09;2.85;;;2.65;;
40595;SDS011;26304;48.794;9.820;2024-01-30T11:25:34;3.22;;;2.67;;
40595;SDS011;26304;48.794;9.820;2024-01-30T11:27:57;2.97;;;2.78;;
40595;SDS011;26304;48.794;9.820;2024-01-30T11:30:20;2.83;;;2.63;;
40595;SDS011;26304;48.794;9.820;2024-01-30T11:32:45;3.45;;;2.70;;
40595;SDS011;26304;48.794;9.820;2024-01-30T11:35:08;2.80;;;2.60;;
40595;SDS011;26304;48.794;9.820;2024-01-30T11:37:32;2.70;;;2.50;;
40595;SDS011;26304;48.794;9.820;2024-01-30T11:40:00;2.72;;;2.47;;
40595;SDS011;26304;48.794;9.820;2024-01-30T11:42:25;3.03;;;2.70;;
40595;SDS011;26304;48.794;9.820;2024-01-30T11:44:49;2.90;;;2.70;;
40595;SDS011;26304;48.794;9.820;2024-01-30T11:47:11;2.65;;;2.45;;
40595;SDS011;26304;48.794;9.820;2024-01-30T11:49:35;2.53;;;2.33;;
40595;SDS011;26304;48.794;9.820;2024-01-30T11:51:58;3.35;;;2.55;;
40595;SDS011;26304;48.794;9.820;2024-01-30T11:54:21;3.05;;;2.75;;
40595;SDS011;26304;48.794;9.820;2024-01-30T11:56:44;2.00;;;1.90;;
40595;SDS011;26304;48.794;9.820;2024-01-30T11:59:06;2.60;;;2.40;;
40595;SDS011;26304;48.794;9.820;2024-01-30T12:01:29;2.58;;;2.38;;
40595;SDS011;26304;48.794;9.820;2024-01-30T12:03:52;3.60;;;2.72;;
40595;SDS011;26304;48.794;9.820;2024-01-30T12:06:16;2.60;;;2.40;;
40595;SDS011;26304;48.794;9.820;2024-01-30T12:08:39;2.53;;;2.33;;
40595;SDS011;26304;48.794;9.820;2024-01-30T12:11:02;2.80;;;2.55;;
40595;SDS011;26304;48.794;9.820;2024-01-30T12:13:26;3.10;;;2.90;;
40595;SDS011;26304;48.794;9.820;2024-01-30T12:15:49;2.70;;;2.50;;
40595;SDS011;26304;48.794;9.820;2024-01-30T12:18:12;2.80;;;2.60;;
40595;SDS011;26304;48.794;9.820;2024-01-30T12:20:35;2.70;;;2.50;;
40595;SDS011;26304;48.794;9.820;2024-01-30T12:22:59;2.72;;;2.50;;
40595;SDS011;26304;48.794;9.820;2024-01-30T12:25:21;2.50;;;2.30;;
40595;SDS011;26304;48.794;9.820;2024-01-30T12:27:45;2.60;;;2.40;;
40595;SDS011;26304;48.794;9.820;2024-01-30T12:30:11;2.50;;;2.28;;
40595;SDS011;26304;48.794;9.820;2024-01-30T12:32:35;2.70;;;2.50;;
40595;SDS011;26304;48.794;9.820;2024-01-30T12:34:58;2.80;;;2.60;;
40595;SDS011;26304;48.794;9.820;2024-01-30T12:37:21;2.88;;;2.40;;
40595;SDS011;26304;48.794;9.820;2024-01-30T12:39:46;2.60;;;2.40;;
40595;SDS011;26304;48.794;9.820;2024-01-30T12:42:09;2.63;;;2.53;;
40595;SDS011;26304;48.794;9.820;2024-01-30T12:44:32;2.55;;;2.28;;
40595;SDS011;26304;48.794;9.820;2024-01-30T12:46:54;2.95;;;2.67;;
40595;SDS011;26304;48.794;9.820;2024-01-30T12:49:17;2.53;;;2.33;;
40595;SDS011;26304;48.794;9.820;2024-01-30T12:51:39;3.08;;;2.78;;
40595;SDS011;26304;48.794;9.820;2024-01-30T12:54:05;2.85;;;2.45;;
40595;SDS011;26304;48.794;9.820;2024-01-30T12:56:29;2.53;;;2.33;;
40595;SDS011;26304;48.794;9.820;2024-01-30T12:58:52;2.75;;;2.55;;
40595;SDS011;26304;48.794;9.820;2024-01-30T13:01:14;2.40;;;2.20;;
40595;SDS011;26304;48.794;9.820;2024-01-30T13:03:37;3.13;;;2.83;;
40595;SDS011;26304;48.794;9.820;2024-01-30T13:06:00;2.63;;;2.42;;
40595;SDS011;26304;48.794;9.820;2024-01-30T13:08:22;2.97;;;2.78;;
40595;SDS011;26304;48.794;9.820;2024-01-30T13:10:45;2.58;;;2.38;;
40595;SDS011;26304;48.794;9.820;2024-01-30T13:13:09;2.65;;;2.45;;
40595;SDS011;26304;48.794;9.820;2024-01-30T13:15:31;2.38;;;2.20;;
40595;SDS011;26304;48.794;9.820;2024-01-30T13:17:54;2.22;;;2.13;;
40595;SDS011;26304;48.794;9.820;2024-01-30T13:20:16;2.70;;;2.47;;
40595;SDS011;26304;48.794;9.820;2024-01-30T13:22:41;2.40;;;2.20;;
40595;SDS011;26304;48.794;9.820;2024-01-30T13:25:09;2.15;;;2.05;;
40595;SDS011;26304;48.794;9.820;2024-01-30T13:27:32;2.83;;;2.15;;
40595;SDS011;26304;48.794;9.820;2024-01-30T13:29:56;2.53;;;2.33;;
40595;SDS011;26304;48.794;9.820;2024-01-30T13:32:18;2.40;;;2.20;;
40595;SDS011;26304;48.794;9.820;2024-01-30T13:34:41;2.42;;;2.22;;
40595;SDS011;26304;48.794;9.820;2024-01-30T13:37:04;2.80;;;2.40;;
40595;SDS011;26304;48.794;9.820;2024-01-30T13:39:26;2.83;;;2.60;;
40595;SDS011;26304;48.794;9.820;2024-01-30T13:41:50;3.17;;;2.40;;
40595;SDS011;26304;48.794;9.820;2024-01-30T13:44:12;3.45;;;2.72;;
40595;SDS011;26304;48.794;9.820;2024-01-30T13:46:38;2.70;;;2.45;;
40595;SDS011;26304;48.794;9.820;2024-01-30T13:49:01;2.47;;;2.28;;
40595;SDS011;26304;48.794;9.820;2024-01-30T13:51:23;2.70;;;2.38;;
40595;SDS011;26304;48.794;9.820;2024-01-30T13:53:46;2.72;;;2.08;;
40595;SDS011;26304;48.794;9.820;2024-01-30T13:56:08;2.58;;;2.38;;
40595;SDS011;26304;48.794;9.820;2024-01-30T13:58:31;2.97;;;2.70;;
40595;SDS011;26304;48.794;9.820;2024-01-30T14:00:54;2.65;;;2.45;;
40595;SDS011;26304;48.794;9.820;2024-01-30T14:03:18;2.83;;;2.50;;
40595;SDS011;26304;48.794;9.820;2024-01-30T14:05:41;2.53;;;2.33;;
40595;SDS011;26304;48.794;9.820;2024-01-30T14:08:05;2.70;;;2.50;;
40595;SDS011;26304;48.794;9.820;2024-01-30T14:10:28;2.70;;;2.50;;
40595;SDS011;26304;48.794;9.820;2024-01-30T14:12:51;5.07;;;2.90;;
40595;SDS011;26304;48.794;9.820;2024-01-30T14:15:14;3.03;;;2.58;;
40595;SDS011;26304;48.794;9.820;2024-01-30T14:17:38;8.10;;;2.67;;
40595;SDS011;26304;48.794;9.820;2024-01-30T14:20:03;3.03;;;2.15;;
40595;SDS011;26304;48.794;9.820;2024-01-30T14:22:26;3.13;;;2.83;;
40595;SDS011;26304;48.794;9.820;2024-01-30T14:24:48;3.10;;;2.47;;
40595;SDS011;26304;48.794;9.820;2024-01-30T14:27:11;3.15;;;2.90;;